createdAt,value
2018-11-13T00:03:14.592Z,88.16
2018-11-13T00:13:14.474Z,87.90
2018-11-13T00:23:14.311Z,88.31
2018-11-13T00:33:17.274Z,88.84
2018-11-13T00:43:32.777Z,88.63
2018-11-13T00:53:35.187Z,87.22
2018-11-13T01:03:44.807Z,88.00
2018-11-13T01:13:46.281Z,87.92
2018-11-13T01:23:46.679Z,88.06
2018-11-13T01:33:47.982Z,88.58
2018-11-13T01:43:48.214Z,89.37
2018-11-13T01:53:48.051Z,88.67
2018-11-13T02:03:47.933Z,87.61
2018-11-13T02:13:47.753Z,88.62
2018-11-13T02:23:47.583Z,88.91
2018-11-13T02:33:47.453Z,90.02
2018-11-13T02:43:47.659Z,90.92
2018-11-13T02:53:47.442Z,91.10
2018-11-13T03:03:47.296Z,90.65
2018-11-13T03:13:47.196Z,91.55
2018-11-13T03:23:46.940Z,90.99
2018-11-13T03:33:46.768Z,90.91
2018-11-13T03:43:46.594Z,91.72
2018-11-13T03:53:46.429Z,91.96
2018-11-13T04:03:46.260Z,91.26
2018-11-13T04:13:46.089Z,91.98
2018-11-13T04:23:45.988Z,90.84
2018-11-13T04:33:45.786Z,91.59
2018-11-13T04:43:46.120Z,89.94
2018-11-13T04:53:46.428Z,90.82
2018-11-13T05:03:46.593Z,91.98
2018-11-13T05:13:46.415Z,91.32
2018-11-13T05:23:46.260Z,89.44
2018-11-13T05:33:46.084Z,88.71
2018-11-13T05:43:45.911Z,88.59
2018-11-13T05:53:45.741Z,89.38
2018-11-13T06:03:45.676Z,90.33
2018-11-13T06:13:45.542Z,90.88
2018-11-13T06:23:45.630Z,88.85
2018-11-13T06:33:45.531Z,88.32
2018-11-13T06:43:45.644Z,88.07
2018-11-13T06:54:21.813Z,88.53
2018-11-13T07:04:21.837Z,88.26
2018-11-13T07:14:21.723Z,89.35
2018-11-13T07:24:21.570Z,86.42
2018-11-13T07:34:21.522Z,88.34
2018-11-13T07:44:21.628Z,87.33
2018-11-13T07:54:22.917Z,87.43
2018-11-13T08:04:35.247Z,85.88
2018-11-13T08:14:35.159Z,86.41
2018-11-13T08:24:35.182Z,85.92
2018-11-13T08:34:36.696Z,84.71
2018-11-13T08:44:37.883Z,83.46
2018-11-13T08:54:37.997Z,84.38
2018-11-13T09:04:37.939Z,80.86
2018-11-13T09:14:38.815Z,80.85
2018-11-13T09:24:38.860Z,81.76
2018-11-13T09:34:38.778Z,78.04
2018-11-13T09:44:38.609Z,69.86
2018-11-13T09:54:56.771Z,58.10
2018-11-13T10:05:15.997Z,62.69
2018-11-13T10:15:33.144Z,60.42
2018-11-13T10:25:51.168Z,59.00
2018-11-13T10:36:09.316Z,52.19
2018-11-13T10:46:26.881Z,54.76
2018-11-13T10:56:45.942Z,62.15
2018-11-13T11:07:03.770Z,58.90
2018-11-13T11:17:21.873Z,58.03
2018-11-13T11:27:39.626Z,55.12
2018-11-13T11:37:58.252Z,51.59
2018-11-13T11:48:19.315Z,51.26
2018-11-13T11:58:37.532Z,49.63
2018-11-13T12:08:58.280Z,48.75
2018-11-13T12:19:19.035Z,50.44
2018-11-13T12:29:37.419Z,51.63
2018-11-13T12:39:58.865Z,51.23
2018-11-13T12:50:19.134Z,53.09
2018-11-13T13:00:39.915Z,55.68
2018-11-13T13:11:02.233Z,55.15
2018-11-13T13:21:20.170Z,57.06
2018-11-13T13:31:39.432Z,59.04
2018-11-13T13:41:58.109Z,61.33
2018-11-13T13:52:16.806Z,61.79
2018-11-13T14:02:35.056Z,63.73
2018-11-13T14:12:53.162Z,63.48
2018-11-13T14:23:15.638Z,64.63
2018-11-13T14:33:34.026Z,65.35
2018-11-13T14:43:52.262Z,65.57
2018-11-13T14:54:10.330Z,66.23
2018-11-13T15:04:28.469Z,66.99
2018-11-13T15:14:46.634Z,67.17
2018-11-13T15:25:05.893Z,67.87
2018-11-13T15:35:23.644Z,69.05
2018-11-13T15:45:41.260Z,68.64
2018-11-13T15:55:59.058Z,68.11
2018-11-13T16:06:16.994Z,68.83
2018-11-13T16:16:35.265Z,70.64
2018-11-13T16:26:53.329Z,71.45
2018-11-13T16:37:11.499Z,68.15
2018-11-13T16:47:29.755Z,67.36
2018-11-13T16:57:48.120Z,67.04
2018-11-13T17:08:06.076Z,68.12
2018-11-13T17:18:23.904Z,67.79
2018-11-13T17:28:42.006Z,69.76
2018-11-13T17:39:00.627Z,72.10
2018-11-13T17:49:18.824Z,73.78
2018-11-13T17:59:37.406Z,74.60
2018-11-13T18:09:55.392Z,75.15
2018-11-13T18:20:18.614Z,75.40
2018-11-13T18:30:37.958Z,75.03
2018-11-13T18:40:55.793Z,74.59
2018-11-13T18:51:15.993Z,73.68
2018-11-13T19:01:33.952Z,73.72
2018-11-13T19:11:53.642Z,75.02
2018-11-13T19:22:14.888Z,76.05
2018-11-13T19:32:32.769Z,77.07
2018-11-13T19:42:52.031Z,76.54
2018-11-13T19:53:10.702Z,74.10
2018-11-13T20:03:28.688Z,75.00
2018-11-13T20:13:28.694Z,75.51
2018-11-13T20:23:28.751Z,76.46
2018-11-13T20:33:28.564Z,76.04
2018-11-13T20:43:29.041Z,77.23
2018-11-13T20:53:28.794Z,75.90
2018-11-13T21:03:28.651Z,76.66
2018-11-13T21:13:28.517Z,76.52
2018-11-13T21:23:47.671Z,76.94
2018-11-13T21:34:05.813Z,76.25
2018-11-13T21:44:24.016Z,75.26
2018-11-13T21:54:42.256Z,74.47
2018-11-13T22:05:00.806Z,73.09
2018-11-13T22:15:20.027Z,72.55
2018-11-13T22:25:38.574Z,72.02
2018-11-13T22:35:57.058Z,71.43
2018-11-13T22:46:15.293Z,71.47
2018-11-13T22:56:33.483Z,71.80
2018-11-13T23:06:51.507Z,70.80
2018-11-13T23:17:09.527Z,71.22
2018-11-13T23:27:27.693Z,71.32
2018-11-13T23:37:47.195Z,71.31
2018-11-13T23:48:06.308Z,71.31
2018-11-13T23:58:24.524Z,70.76
